Time;durP1;ratioP1;P1;durP2;ratioP2;P2;SDS_P1;SDS_P2;PMS_P1;PMS_P2;Temp;Humidity;BMP_temperature;BMP_pressure;BME280_temperature;BME280_humidity;BME280_pressure;Samples;Min_cycle;Max_cycle;Signal;HPM_P1;HPM_P2
2024/01/13 00:02:14;;;;;;;24.92;8.30;;;7.80;51.90;;;;;;6234034;28;20618;-77
2024/01/13 00:05:15;;;;;;;16.23;7.03;;;7.80;52.00;;;;;;6247936;28;20664;-78
2024/01/13 00:08:17;;;;;;;24.05;7.50;;;7.80;51.90;;;;;;6245947;28;20082;-78
2024/01/13 00:11:19;;;;;;;19.70;6.88;;;7.70;51.90;;;;;;6259403;28;20044;-78
2024/01/13 00:14:19;;;;;;;25.75;8.35;;;7.70;52.00;;;;;;6230343;28;20422;-78
2024/01/13 00:17:21;;;;;;;21.77;8.30;;;7.70;52.10;;;;;;6249437;28;20362;-76
2024/01/13 00:20:22;;;;;;;16.23;7.93;;;7.80;52.10;;;;;;6248749;28;20020;-77
2024/01/13 00:23:26;;;;;;;18.45;8.00;;;7.80;52.00;;;;;;6248530;28;20027;-78
2024/01/13 00:26:27;;;;;;;20.80;7.93;;;7.80;51.90;;;;;;6253007;28;20024;-77
2024/01/13 00:29:29;;;;;;;16.88;7.20;;;7.80;52.50;;;;;;6248283;28;20025;-77
2024/01/13 00:32:30;;;;;;;20.95;7.68;;;7.70;51.70;;;;;;6242513;28;20087;-76
2024/01/13 00:35:31;;;;;;;16.02;6.97;;;7.70;52.30;;;;;;6235668;28;20470;-77
2024/01/13 00:38:33;;;;;;;12.18;6.72;;;7.70;51.80;;;;;;6241143;28;20079;-77
2024/01/13 00:41:35;;;;;;;15.85;7.13;;;7.70;51.70;;;;;;6262992;28;20515;-78
2024/01/13 00:44:36;;;;;;;12.18;7.07;;;7.70;51.70;;;;;;6242721;28;20032;-78
2024/01/13 00:47:39;;;;;;;20.92;7.43;;;7.70;51.80;;;;;;6252170;28;20594;-78
2024/01/13 00:50:40;;;;;;;15.55;6.18;;;7.70;51.80;;;;;;6224215;28;20025;-77
2024/01/13 00:53:41;;;;;;;19.15;7.25;;;7.70;52.40;;;;;;6245221;28;20173;-77
2024/01/13 00:56:43;;;;;;;18.50;7.30;;;7.80;51.80;;;;;;6244776;28;20036;-78
2024/01/13 00:59:46;;;;;;;14.90;6.07;;;7.80;51.70;;;;;;6242289;28;20070;-79
2024/01/13 01:02:47;;;;;;;17.20;6.80;;;7.80;51.60;;;;;;6227383;28;20047;-78
2024/01/13 01:05:51;;;;;;;21.10;8.43;;;7.80;51.40;;;;;;6261060;28;20108;-76
2024/01/13 01:08:55;;;;;;;17.25;6.90;;;7.80;51.40;;;;;;6233112;28;20021;-78
2024/01/13 01:11:57;;;;;;;14.65;7.20;;;7.80;51.30;;;;;;6253604;28;20056;-78
2024/01/13 01:14:58;;;;;;;18.77;7.50;;;7.80;51.20;;;;;;6244041;28;20043;-78
2024/01/13 01:17:59;;;;;;;22.67;8.13;;;7.70;51.10;;;;;;6247149;28;20029;-78
2024/01/13 01:20:59;;;;;;;17.48;7.07;;;7.70;51.20;;;;;;6242069;28;20044;-78
2024/01/13 01:24:00;;;;;;;20.23;8.20;;;7.70;51.30;;;;;;6241544;28;20469;-78
2024/01/13 01:27:03;;;;;;;15.98;7.13;;;7.60;51.30;;;;;;6232566;28;20151;-77
2024/01/13 01:30:04;;;;;;;26.63;8.55;;;7.60;51.40;;;;;;6244328;28;20473;-78
2024/01/13 01:33:05;;;;;;;11.85;6.80;;;7.60;51.40;;;;;;6242944;28;20030;-79
2024/01/13 01:36:06;;;;;;;17.10;6.95;;;7.70;51.40;;;;;;6255223;28;20025;-78
2024/01/13 01:39:09;;;;;;;20.45;8.50;;;7.60;51.30;;;;;;6233288;28;20126;-78
2024/01/13 01:42:11;;;;;;;24.02;7.28;;;7.60;51.50;;;;;;6251672;28;20177;-78
2024/01/13 01:45:12;;;;;;;21.92;7.60;;;7.70;51.60;;;;;;6236608;28;20135;-78
2024/01/13 01:48:14;;;;;;;20.17;6.68;;;7.70;51.50;;;;;;6244441;28;20029;-79
2024/01/13 01:51:18;;;;;;;14.65;6.22;;;7.70;51.30;;;;;;6241958;28;20133;-77
2024/01/13 01:54:19;;;;;;;17.83;6.45;;;7.60;51.20;;;;;;6244881;28;20052;-78
2024/01/13 01:57:21;;;;;;;15.70;7.15;;;7.60;51.40;;;;;;6244004;28;20016;-78
2024/01/13 02:00:22;;;;;;;16.08;6.47;;;7.60;51.30;;;;;;6243450;28;20036;-78
2024/01/13 02:03:24;;;;;;;17.02;6.63;;;7.50;51.20;;;;;;6250759;28;21472;-78
2024/01/13 02:06:25;;;;;;;18.67;6.90;;;7.50;51.30;;;;;;6265861;28;20032;-79
2024/01/13 02:09:26;;;;;;;17.58;7.57;;;7.50;51.60;;;;;;6242019;28;20564;-79
2024/01/13 02:12:28;;;;;;;18.00;7.28;;;7.60;51.70;;;;;;6268134;28;20032;-78
2024/01/13 02:15:30;;;;;;;13.75;6.85;;;7.60;51.60;;;;;;6258235;28;20025;-78
2024/01/13 02:18:31;;;;;;;21.35;6.95;;;7.60;51.60;;;;;;6254779;28;20533;-78
2024/01/13 02:21:38;;;;;;;14.85;5.90;;;7.60;51.60;;;;;;6248861;28;20151;-78
2024/01/13 02:24:39;;;;;;;20.65;6.80;;;7.60;51.60;;;;;;6248073;28;20107;-78
2024/01/13 02:27:41;;;;;;;23.63;8.20;;;7.60;51.70;;;;;;6253750;28;20116;-78
2024/01/13 02:30:42;;;;;;;24.63;7.35;;;7.60;51.70;;;;;;6237967;28;20064;-79
2024/01/13 02:33:43;;;;;;;16.92;8.02;;;7.60;51.50;;;;;;6249502;28;20021;-79
2024/01/13 02:36:44;;;;;;;20.50;7.38;;;7.60;51.40;;;;;;6255747;28;20104;-78
2024/01/13 02:39:46;;;;;;;13.55;5.85;;;7.50;51.50;;;;;;6246025;28;20020;-77
2024/01/13 02:42:48;;;;;;;20.45;6.50;;;7.50;51.50;;;;;;6259780;28;20048;-78
2024/01/13 02:45:49;;;;;;;18.65;7.53;;;7.50;51.60;;;;;;6250660;28;20017;-78
2024/01/13 02:48:54;;;;;;;18.13;5.85;;;7.50;51.60;;;;;;6246553;28;20025;-78
2024/01/13 02:51:55;;;;;;;13.27;6.68;;;7.50;51.50;;;;;;6245620;28;20106;-78
2024/01/13 02:54:56;;;;;;;24.42;7.00;;;7.50;51.40;;;;;;6247672;28;20013;-79
2024/01/13 02:57:56;;;;;;;25.65;6.68;;;7.50;51.30;;;;;;6233406;28;20098;-78
2024/01/13 03:00:58;;;;;;;19.90;9.00;;;7.40;51.40;;;;;;6256892;28;20025;-78
2024/01/13 03:03:59;;;;;;;18.35;6.40;;;7.50;51.60;;;;;;6234662;28;20036;-78
2024/01/13 03:07:00;;;;;;;14.48;6.60;;;7.50;51.60;;;;;;6243439;28;20171;-77
2024/01/13 03:10:01;;;;;;;14.80;6.97;;;7.50;51.60;;;;;;6251417;28;20401;-78
2024/01/13 03:13:02;;;;;;;14.57;6.82;;;7.60;51.70;;;;;;6267298;28;20053;-78
2024/01/13 03:16:03;;;;;;;9.95;5.53;;;7.60;51.50;;;;;;6254343;28;20031;-78
2024/01/13 03:19:04;;;;;;;14.38;6.63;;;7.70;51.40;;;;;;6247533;28;20198;-78
2024/01/13 03:22:07;;;;;;;12.10;6.03;;;7.60;51.30;;;;;;6280819;28;20156;-78
2024/01/13 03:25:09;;;;;;;13.38;5.93;;;7.60;51.20;;;;;;6242811;28;20041;-78
2024/01/13 03:28:11;;;;;;;17.00;6.30;;;7.60;51.20;;;;;;6265419;28;20022;-78
2024/01/13 03:31:13;;;;;;;16.63;6.03;;;7.50;51.30;;;;;;6263423;28;20022;-77
2024/01/13 03:34:14;;;;;;;15.13;6.38;;;7.60;51.30;;;;;;6258948;28;20528;-78
2024/01/13 03:37:15;;;;;;;14.38;6.70;;;7.50;51.20;;;;;;6231465;28;20031;-78
2024/01/13 03:40:16;;;;;;;16.90;7.57;;;7.40;51.30;;;;;;6245703;28;20021;-78
2024/01/13 03:43:16;;;;;;;16.05;5.95;;;7.60;51.50;;;;;;6245059;28;20431;-78
2024/01/13 03:46:18;;;;;;;16.90;6.78;;;7.50;51.50;;;;;;6235246;28;20037;-77
2024/01/13 03:49:22;;;;;;;21.73;5.93;;;7.50;51.70;;;;;;6246285;28;20089;-79
2024/01/13 03:52:23;;;;;;;14.23;6.40;;;7.50;51.60;;;;;;6232375;28;20430;-78
2024/01/13 03:55:23;;;;;;;15.23;6.53;;;7.50;51.60;;;;;;6248632;28;20049;-77
2024/01/13 03:58:24;;;;;;;13.73;5.65;;;7.50;51.70;;;;;;6260062;28;20091;-79
2024/01/13 04:01:25;;;;;;;10.45;5.05;;;7.50;51.70;;;;;;6243775;28;20529;-78
2024/01/13 04:04:32;;;;;;;12.35;5.43;;;7.50;51.90;;;;;;6227874;28;20029;-78
2024/01/13 04:07:33;;;;;;;15.82;6.05;;;7.60;52.00;;;;;;6266366;28;20116;-79
2024/01/13 04:10:34;;;;;;;10.90;4.75;;;7.60;52.00;;;;;;6246895;28;20052;-78
2024/01/13 04:13:38;;;;;;;8.57;3.33;;;7.60;52.00;;;;;;6249417;28;20024;-77
2024/01/13 04:16:39;;;;;;;10.02;4.82;;;7.60;52.00;;;;;;6238455;28;20057;-75
2024/01/13 04:19:40;;;;;;;9.18;4.57;;;7.60;51.90;;;;;;6224501;28;21511;-78
2024/01/13 04:22:42;;;;;;;9.70;3.88;;;7.50;51.90;;;;;;6252700;28;20018;-78
2024/01/13 04:25:43;;;;;;;9.50;4.28;;;7.40;51.90;;;;;;6253272;28;20059;-77
2024/01/13 04:28:46;;;;;;;10.48;4.15;;;7.40;52.10;;;;;;6245755;28;20454;-78
2024/01/13 04:31:48;;;;;;;9.00;3.47;;;7.30;52.30;;;;;;6209658;28;20198;-79
2024/01/13 04:34:50;;;;;;;8.05;3.45;;;7.20;52.40;;;;;;6248305;28;20477;-78
2024/01/13 04:37:52;;;;;;;8.15;3.38;;;7.20;52.40;;;;;;6247929;28;20115;-79
2024/01/13 04:40:54;;;;;;;8.50;4.50;;;7.20;52.50;;;;;;6248580;28;20043;-79
2024/01/13 04:43:54;;;;;;;6.10;3.20;;;7.10;52.60;;;;;;6251813;28;20017;-78
2024/01/13 04:46:56;;;;;;;10.30;4.20;;;7.10;52.70;;;;;;6248385;28;20021;-78
2024/01/13 04:49:58;;;;;;;13.27;5.10;;;7.20;52.80;;;;;;6233137;28;20036;-78
2024/01/13 04:52:59;;;;;;;8.95;4.30;;;7.10;52.70;;;;;;6226435;28;20276;-78
2024/01/13 04:56:00;;;;;;;12.55;5.30;;;7.10;52.70;;;;;;6232192;28;20021;-78
2024/01/13 04:59:00;;;;;;;11.45;5.15;;;7.10;52.60;;;;;;6253789;28;20036;-78
2024/01/13 05:02:01;;;;;;;19.60;6.38;;;7.10;52.70;;;;;;6241078;28;20115;-77
2024/01/13 05:05:02;;;;;;;13.25;4.75;;;7.10;52.80;;;;;;6250699;28;20149;-79
2024/01/13 05:08:04;;;;;;;7.38;3.90;;;7.00;52.80;;;;;;6250127;28;20039;-76
2024/01/13 05:11:05;;;;;;;8.20;4.82;;;7.10;52.80;;;;;;6242866;28;20129;-79
2024/01/13 05:14:05;;;;;;;11.95;4.97;;;7.10;52.70;;;;;;6248520;28;20079;-78
2024/01/13 05:17:06;;;;;;;11.32;3.80;;;7.10;52.80;;;;;;6261707;28;20107;-78
2024/01/13 05:20:08;;;;;;;6.68;3.72;;;7.10;52.90;;;;;;6236956;28;20033;-78
2024/01/13 05:23:15;;;;;;;7.97;4.30;;;7.10;53.00;;;;;;6250707;28;20125;-78
2024/01/13 05:26:16;;;;;;;8.88;3.53;;;7.10;53.00;;;;;;6214954;28;20026;-79
2024/01/13 05:29:17;;;;;;;8.57;3.80;;;7.20;53.00;;;;;;6225402;28;20355;-78
2024/01/13 05:32:18;;;;;;;7.78;3.38;;;7.20;53.00;;;;;;6237408;28;20033;-78
2024/01/13 05:35:19;;;;;;;7.13;3.45;;;7.20;52.90;;;;;;6229931;28;20021;-78
2024/01/13 05:38:20;;;;;;;5.47;3.22;;;7.20;52.80;;;;;;6238746;28;20029;-78
2024/01/13 05:41:21;;;;;;;5.55;2.95;;;7.20;52.80;;;;;;6232720;28;20018;-78
2024/01/13 05:44:22;;;;;;;8.10;2.97;;;7.20;52.70;;;;;;6234715;28;20674;-79
2024/01/13 05:47:23;;;;;;;11.70;4.22;;;7.10;52.70;;;;;;6253189;28;20029;-77
2024/01/13 05:50:26;;;;;;;6.63;3.17;;;7.00;52.80;;;;;;6248826;28;20128;-77
2024/01/13 05:53:28;;;;;;;7.20;3.10;;;7.00;52.90;;;;;;6249573;28;20078;-79
2024/01/13 05:56:30;;;;;;;7.32;3.35;;;7.00;53.00;;;;;;6252563;28;20505;-78
2024/01/13 05:59:33;;;;;;;12.27;4.30;;;6.90;53.10;;;;;;6252815;28;20380;-78
2024/01/13 06:02:33;;;;;;;6.50;3.13;;;6.90;53.20;;;;;;6261972;28;20100;-78
2024/01/13 06:05:39;;;;;;;5.30;2.40;;;6.90;53.20;;;;;;6249154;28;20072;-78
2024/01/13 06:08:40;;;;;;;7.78;2.95;;;6.90;53.20;;;;;;6253299;28;20047;-77
2024/01/13 06:11:41;;;;;;;6.93;3.58;;;6.80;53.20;;;;;;6253765;28;20055;-78
2024/01/13 06:14:42;;;;;;;12.55;4.05;;;6.80;53.40;;;;;;6248687;28;20117;-79
2024/01/13 06:17:43;;;;;;;8.40;4.25;;;6.80;53.40;;;;;;6292935;28;20021;-78
2024/01/13 06:20:44;;;;;;;9.32;4.80;;;6.80;53.40;;;;;;6279701;28;20025;-77
2024/01/13 06:23:45;;;;;;;11.45;4.40;;;6.80;53.50;;;;;;6263440;28;20052;-77
2024/01/13 06:26:46;;;;;;;6.00;2.53;;;6.80;53.40;;;;;;6229197;28;20045;-79
2024/01/13 06:29:47;;;;;;;7.00;3.17;;;6.80;53.40;;;;;;6260187;28;20131;-77
2024/01/13 06:32:49;;;;;;;4.47;3.28;;;6.80;53.30;;;;;;6248998;28;20091;-78
2024/01/13 06:35:50;;;;;;;3.90;3.08;;;6.70;53.30;;;;;;6255813;28;20017;-78
2024/01/13 06:38:52;;;;;;;3.95;2.95;;;6.70;53.50;;;;;;6251387;28;20462;-78
2024/01/13 06:41:53;;;;;;;7.78;3.38;;;6.70;53.50;;;;;;6253556;28;20028;-79
2024/01/13 06:44:55;;;;;;;10.73;3.50;;;6.70;53.50;;;;;;6258091;28;20114;-77
2024/01/13 06:47:57;;;;;;;5.38;3.70;;;6.70;53.60;;;;;;6255304;28;20096;-79
2024/01/13 06:50:59;;;;;;;6.55;3.40;;;6.70;53.70;;;;;;6254762;28;20044;-79
2024/01/13 06:54:00;;;;;;;5.57;2.70;;;6.70;53.80;;;;;;6250574;28;20044;-78
2024/01/13 06:57:01;;;;;;;7.75;3.60;;;6.70;53.80;;;;;;6247174;28;20043;-78
2024/01/13 07:00:07;;;;;;;11.15;5.70;;;6.70;53.70;;;;;;6264929;28;20086;-78
2024/01/13 07:03:08;;;;;;;8.40;4.50;;;6.80;53.60;;;;;;6253290;28;20017;-77
2024/01/13 07:06:09;;;;;;;11.63;5.80;;;6.70;53.50;;;;;;6246745;28;20112;-78
2024/01/13 07:09:12;;;;;;;12.13;4.72;;;6.80;53.60;;;;;;6250394;28;20064;-77
2024/01/13 07:12:13;;;;;;;8.15;3.90;;;6.80;53.60;;;;;;6234875;28;20489;-77
2024/01/13 07:15:14;;;;;;;6.97;3.42;;;6.80;53.60;;;;;;6247406;28;20029;-77
2024/01/13 07:18:16;;;;;;;5.70;2.88;;;6.80;53.40;;;;;;6253024;28;20046;-78
2024/01/13 07:21:16;;;;;;;6.18;3.00;;;6.80;53.40;;;;;;6234627;28;20021;-77
2024/01/13 07:24:17;;;;;;;5.93;3.58;;;6.80;53.40;;;;;;6245624;28;20025;-77
2024/01/13 07:27:18;;;;;;;11.77;3.58;;;6.80;53.50;;;;;;6247486;28;20100;-78
2024/01/13 07:30:19;;;;;;;12.48;3.03;;;6.80;53.60;;;;;;6230078;28;20100;-76
2024/01/13 07:33:20;;;;;;;9.48;4.53;;;6.80;53.70;;;;;;6260809;28;20017;-78
2024/01/13 07:36:23;;;;;;;15.68;5.47;;;6.80;53.60;;;;;;6253048;28;20085;-77
2024/01/13 07:39:24;;;;;;;9.27;4.80;;;6.80;53.60;;;;;;6249233;28;20047;-78
2024/01/13 07:42:25;;;;;;;5.18;3.25;;;6.80;53.60;;;;;;6250342;28;20033;-78
2024/01/13 07:45:26;;;;;;;7.47;3.58;;;6.80;53.60;;;;;;6232238;28;20124;-77
2024/01/13 07:48:28;;;;;;;5.28;3.05;;;6.70;53.50;;;;;;6231741;28;20025;-77
2024/01/13 07:51:29;;;;;;;9.55;4.35;;;6.70;53.60;;;;;;6236773;28;20117;-78
2024/01/13 07:54:30;;;;;;;9.52;4.32;;;6.60;53.70;;;;;;6258304;28;20014;-77
2024/01/13 07:57:31;;;;;;;3.53;2.67;;;6.60;53.80;;;;;;6249725;28;20614;-79
2024/01/13 08:00:32;;;;;;;8.90;3.95;;;6.70;53.80;;;;;;6267565;28;20566;-77
2024/01/13 08:03:34;;;;;;;8.00;3.65;;;6.70;53.80;;;;;;6225872;28;20029;-78
2024/01/13 08:06:35;;;;;;;5.93;3.50;;;6.70;53.90;;;;;;6252374;28;20028;-78
2024/01/13 08:09:37;;;;;;;5.03;3.00;;;6.70;53.80;;;;;;6248941;28;20068;-77
2024/01/13 08:12:39;;;;;;;4.13;3.45;;;6.70;53.70;;;;;;6243328;28;20400;-78
2024/01/13 08:15:41;;;;;;;9.82;4.13;;;6.70;53.80;;;;;;6227338;28;20192;-78
2024/01/13 08:18:42;;;;;;;12.07;3.85;;;6.70;53.70;;;;;;6282961;28;20473;-77
2024/01/13 08:21:45;;;;;;;9.18;3.72;;;6.70;53.80;;;;;;6248823;28;21206;-78
2024/01/13 08:24:46;;;;;;;9.18;4.40;;;6.70;53.80;;;;;;6242644;28;20179;-77
2024/01/13 08:27:51;;;;;;;8.65;4.78;;;6.70;53.70;;;;;;6252526;28;20056;-77
2024/01/13 08:30:52;;;;;;;7.63;3.45;;;6.80;53.70;;;;;;6250788;28;20048;-78
2024/01/13 08:33:53;;;;;;;10.23;4.00;;;6.80;53.70;;;;;;6239868;28;20033;-78
2024/01/13 08:36:54;;;;;;;4.72;2.35;;;6.80;53.70;;;;;;6264513;28;20019;-77
2024/01/13 08:39:56;;;;;;;5.75;3.65;;;6.90;53.70;;;;;;6246960;28;20017;-78
2024/01/13 08:43:02;;;;;;;11.40;3.53;;;6.90;53.50;;;;;;6245925;28;20175;-77
2024/01/13 08:46:03;;;;;;;12.75;4.47;;;6.90;53.40;;;;;;6259939;28;20020;-75
2024/01/13 08:49:05;;;;;;;10.65;4.38;;;6.90;53.40;;;;;;6247526;28;20036;-76
2024/01/13 08:52:08;;;;;;;9.45;4.10;;;6.90;53.30;;;;;;6253372;28;20110;-77
2024/01/13 08:55:11;;;;;;;10.40;3.85;;;6.90;53.40;;;;;;6247526;28;20036;-77
2024/01/13 08:58:13;;;;;;;9.57;4.85;;;6.80;53.30;;;;;;6245196;28;20049;-77
2024/01/13 09:01:15;;;;;;;9.27;3.67;;;6.80;53.50;;;;;;6234137;28;20028;-77
2024/01/13 09:04:18;;;;;;;5.07;3.63;;;6.90;53.50;;;;;;6246885;28;20082;-77
2024/01/13 09:07:21;;;;;;;14.73;4.35;;;6.90;53.40;;;;;;6236639;28;20036;-77
2024/01/13 09:10:23;;;;;;;11.00;4.68;;;6.90;53.30;;;;;;6225484;28;20033;-76
2024/01/13 09:13:24;;;;;;;12.45;4.50;;;6.90;53.30;;;;;;6252207;28;20044;-77
2024/01/13 09:16:24;;;;;;;17.77;4.38;;;6.90;53.40;;;;;;6257996;28;20096;-76
2024/01/13 09:19:25;;;;;;;10.05;4.97;;;7.00;53.40;;;;;;6245932;28;20018;-77
2024/01/13 09:22:27;;;;;;;10.00;5.40;;;7.10;53.30;;;;;;6273789;28;20031;-77
2024/01/13 09:25:29;;;;;;;21.80;7.35;;;7.20;52.80;;;;;;6263802;28;20426;-75
2024/01/13 09:28:30;;;;;;;18.17;6.97;;;7.20;52.60;;;;;;6247179;28;20033;-77
2024/01/13 09:31:32;;;;;;;11.98;6.65;;;7.20;52.70;;;;;;6247733;28;20100;-76
2024/01/13 09:34:33;;;;;;;11.90;5.75;;;7.30;52.60;;;;;;6240442;28;20114;-78
2024/01/13 09:37:34;;;;;;;10.75;5.60;;;7.30;52.60;;;;;;6256004;28;20022;-76
2024/01/13 09:40:39;;;;;;;16.08;4.45;;;7.50;52.60;;;;;;6243819;28;20130;-76
2024/01/13 09:43:56;;;;;;;8.05;4.15;;;7.50;52.40;;;;;;6255756;28;20028;-76
2024/01/13 09:47:01;;;;;;;11.60;4.55;;;7.60;52.30;;;;;;6239519;28;20077;-76
2024/01/13 09:50:04;;;;;;;15.38;4.07;;;7.70;51.90;;;;;;6249884;28;20087;-75
2024/01/13 09:53:08;;;;;;;11.50;4.13;;;7.70;51.60;;;;;;6252915;28;20024;-77
2024/01/13 09:56:19;;;;;;;9.30;4.93;;;7.70;51.80;;;;;;6249053;28;20027;-76
2024/01/13 09:59:22;;;;;;;11.48;5.60;;;7.70;51.90;;;;;;6271395;28;20024;-75
2024/01/13 10:02:23;;;;;;;13.23;5.20;;;7.80;51.90;;;;;;6248996;28;20033;-76
2024/01/13 10:05:30;;;;;;;14.63;5.95;;;7.80;51.70;;;;;;6255515;28;20028;-77
2024/01/13 10:08:32;;;;;;;16.30;8.20;;;7.90;51.70;;;;;;6250538;28;20025;-76
2024/01/13 10:11:34;;;;;;;16.67;8.27;;;7.90;51.60;;;;;;6250105;28;20389;-76
2024/01/13 10:14:41;;;;;;;22.67;8.05;;;8.00;51.50;;;;;;6254537;28;20016;-77
2024/01/13 10:17:43;;;;;;;22.17;9.63;;;8.00;51.30;;;;;;6252735;28;20093;-76
2024/01/13 10:20:44;;;;;;;11.13;6.45;;;8.00;51.40;;;;;;6257769;28;20392;-77
2024/01/13 10:23:45;;;;;;;19.25;7.10;;;8.00;51.40;;;;;;6255522;28;20056;-75
2024/01/13 10:26:46;;;;;;;17.05;6.47;;;8.10;51.30;;;;;;6279828;28;20021;-76
2024/01/13 10:29:48;;;;;;;14.38;7.03;;;8.10;51.30;;;;;;6262931;28;20114;-78
2024/01/13 10:32:49;;;;;;;18.17;9.13;;;8.20;51.10;;;;;;6249584;28;20119;-75
2024/01/13 10:35:50;;;;;;;17.52;6.07;;;8.10;50.60;;;;;;6240059;28;20029;-78
2024/01/13 10:38:52;;;;;;;14.10;5.63;;;8.00;50.80;;;;;;6254696;28;20140;-78
2024/01/13 10:41:55;;;;;;;14.48;6.55;;;8.00;50.90;;;;;;6251707;28;20778;-75
2024/01/13 10:45:04;;;;;;;18.15;7.60;;;8.00;50.90;;;;;;6251004;28;20044;-77
2024/01/13 10:48:15;;;;;;;23.70;10.63;;;7.90;51.00;;;;;;6231412;28;20025;-76
2024/01/13 10:51:33;;;;;;;18.88;8.68;;;7.90;51.20;;;;;;6251537;28;20039;-77
2024/01/13 10:54:34;;;;;;;19.88;7.55;;;7.90;51.30;;;;;;6254308;28;20109;-77
2024/01/13 10:57:37;;;;;;;16.35;8.15;;;7.90;51.10;;;;;;6250830;28;20013;-78
2024/01/13 11:00:40;;;;;;;21.52;8.05;;;7.90;51.00;;;;;;6280385;28;20025;-76
2024/01/13 11:03:44;;;;;;;14.13;7.60;;;7.90;51.10;;;;;;6272432;28;20108;-76
2024/01/13 11:06:46;;;;;;;19.17;8.10;;;7.90;51.10;;;;;;6252807;28;20028;-75
2024/01/13 11:09:52;;;;;;;20.20;8.85;;;8.00;51.00;;;;;;6247533;28;20025;-77
2024/01/13 11:13:07;;;;;;;19.10;8.60;;;8.00;50.90;;;;;;6255399;28;20470;-76
2024/01/13 11:16:28;;;;;;;23.40;8.02;;;7.90;50.80;;;;;;6263976;28;20111;-76
2024/01/13 11:19:33;;;;;;;19.90;8.13;;;7.90;50.90;;;;;;6245309;28;20812;-77
2024/01/13 11:22:37;;;;;;;9.65;4.68;;;7.90;51.00;;;;;;6250704;28;20106;-76
2024/01/13 11:25:38;;;;;;;9.80;5.78;;;7.90;50.90;;;;;;6233812;28;20335;-77
2024/01/13 11:28:51;;;;;;;14.00;7.25;;;7.80;50.70;;;;;;6240224;28;20037;-74
2024/01/13 11:31:57;;;;;;;17.17;6.75;;;7.70;50.90;;;;;;6247218;28;20441;-75
2024/01/13 11:34:59;;;;;;;27.65;9.43;;;7.70;51.30;;;;;;6242167;28;20105;-76
2024/01/13 11:38:01;;;;;;;21.20;9.60;;;7.70;51.30;;;;;;6228164;28;20486;-75
2024/01/13 11:41:04;;;;;;;24.40;9.25;;;7.70;51.20;;;;;;6245784;28;20036;-75
2024/01/13 11:44:07;;;;;;;26.40;9.70;;;7.60;51.40;;;;;;6267015;28;20021;-74
2024/01/13 11:47:10;;;;;;;23.50;9.38;;;7.70;51.40;;;;;;6258472;28;20021;-77
2024/01/13 11:50:51;;;;;;;23.70;8.98;;;7.70;51.30;;;;;;6253191;28;20021;-77
2024/01/13 11:53:54;;;;;;;22.38;10.10;;;7.80;51.60;;;;;;6226113;28;20108;-76
2024/01/13 11:56:57;;;;;;;17.75;7.70;;;7.90;51.50;;;;;;6205458;28;20083;-76
2024/01/13 12:00:00;;;;;;;19.98;9.15;;;8.00;51.40;;;;;;6221247;28;20136;-77
2024/01/13 12:03:01;;;;;;;18.70;8.70;;;8.10;51.30;;;;;;6189600;28;20025;-76
2024/01/13 12:06:04;;;;;;;20.27;9.27;;;8.20;51.10;;;;;;6222199;28;20029;-75
2024/01/13 12:09:04;;;;;;;28.15;10.02;;;8.20;50.80;;;;;;6189331;28;20067;-78
2024/01/13 12:12:07;;;;;;;26.35;9.60;;;8.30;50.80;;;;;;6190072;28;20103;-77
2024/01/13 12:15:08;;;;;;;21.60;8.60;;;8.30;50.70;;;;;;6207607;28;20834;-76
2024/01/13 12:18:09;;;;;;;18.55;7.35;;;8.30;50.80;;;;;;6224533;28;20232;-73
2024/01/13 12:21:14;;;;;;;19.10;7.93;;;8.30;50.50;;;;;;6238485;28;20505;-78
2024/01/13 12:24:15;;;;;;;16.92;7.80;;;8.20;50.30;;;;;;6223625;28;20111;-75
2024/01/13 12:27:16;;;;;;;18.65;8.35;;;8.00;50.40;;;;;;6248500;28;20345;-75
2024/01/13 12:30:20;;;;;;;25.88;8.52;;;7.90;50.80;;;;;;6254684;28;20025;-74
2024/01/13 12:33:23;;;;;;;28.15;11.10;;;7.80;51.00;;;;;;6234649;28;20014;-75
2024/01/13 12:36:25;;;;;;;25.90;9.13;;;7.80;51.30;;;;;;6245595;28;20021;-75
2024/01/13 12:39:27;;;;;;;10.82;6.45;;;7.70;51.40;;;;;;6248813;28;20124;-76
2024/01/13 12:42:31;;;;;;;18.95;7.88;;;7.70;51.50;;;;;;6252353;28;20029;-76
2024/01/13 12:45:32;;;;;;;15.80;6.88;;;7.70;51.60;;;;;;6251008;28;20082;-75
2024/01/13 12:48:34;;;;;;;17.80;6.97;;;7.60;51.50;;;;;;6251254;28;20045;-75
2024/01/13 12:51:57;;;;;;;16.08;7.75;;;7.50;51.70;;;;;;6236845;28;20147;-74
2024/01/13 12:54:58;;;;;;;17.23;6.72;;;7.40;52.00;;;;;;6230726;28;20029;-76
2024/01/13 12:57:59;;;;;;;13.43;6.95;;;7.30;52.20;;;;;;6246656;28;20021;-77
2024/01/13 13:01:00;;;;;;;14.68;5.30;;;7.20;52.40;;;;;;6251706;28;20079;-76
2024/01/13 13:04:01;;;;;;;11.27;5.38;;;7.10;52.70;;;;;;6248834;28;20436;-75
2024/01/13 13:07:02;;;;;;;23.45;7.35;;;7.00;53.00;;;;;;6246521;28;20456;-76
2024/01/13 13:10:03;;;;;;;12.35;7.68;;;7.00;53.80;;;;;;6240617;28;20045;-76
2024/01/13 13:13:06;;;;;;;12.25;6.40;;;7.00;53.50;;;;;;6231766;28;20045;-75
2024/01/13 13:16:08;;;;;;;10.90;5.80;;;7.00;53.70;;;;;;6281653;28;20023;-76
2024/01/13 13:19:12;;;;;;;13.38;4.65;;;7.00;53.70;;;;;;6277586;28;20727;-76
2024/01/13 13:22:15;;;;;;;11.65;5.60;;;6.90;53.70;;;;;;6250954;28;20850;-76
2024/01/13 13:25:18;;;;;;;14.18;6.40;;;7.00;53.70;;;;;;6235016;28;20104;-77
2024/01/13 13:28:19;;;;;;;10.35;4.50;;;7.00;53.80;;;;;;6240251;28;20502;-76
2024/01/13 13:31:20;;;;;;;18.50;7.72;;;7.00;53.90;;;;;;6252950;28;20029;-77
2024/01/13 13:34:23;;;;;;;16.63;6.13;;;6.90;53.90;;;;;;6236018;28;20028;-75
2024/01/13 13:37:24;;;;;;;8.77;4.97;;;7.00;54.10;;;;;;6248134;28;20123;-75
2024/01/13 13:40:24;;;;;;;20.92;7.28;;;7.00;54.10;;;;;;6246753;28;20495;-76
2024/01/13 13:43:28;;;;;;;15.10;7.43;;;7.00;54.00;;;;;;6250335;28;20024;-75
2024/01/13 13:46:31;;;;;;;21.98;8.57;;;7.00;54.00;;;;;;6249826;28;20013;-75
2024/01/13 13:49:35;;;;;;;14.20;6.85;;;7.10;54.10;;;;;;6248560;28;20013;-75
2024/01/13 13:52:36;;;;;;;21.08;8.27;;;7.20;53.90;;;;;;6248400;28;20124;-75
2024/01/13 13:55:38;;;;;;;25.83;9.57;;;7.20;53.80;;;;;;6253997;28;20565;-78
2024/01/13 13:58:40;;;;;;;16.95;7.95;;;7.20;53.80;;;;;;6255128;28;20107;-75
2024/01/13 14:01:42;;;;;;;15.80;7.82;;;7.30;53.90;;;;;;6258523;28;20112;-75
2024/01/13 14:04:44;;;;;;;18.92;8.00;;;7.30;53.70;;;;;;6252037;28;20141;-74
2024/01/13 14:07:45;;;;;;;21.08;8.48;;;7.30;53.60;;;;;;6251575;28;20021;-73
2024/01/13 14:10:45;;;;;;;19.92;7.93;;;7.30;53.60;;;;;;6248023;28;20078;-75
2024/01/13 14:13:48;;;;;;;19.20;7.85;;;7.40;53.80;;;;;;6248138;28;20499;-74
2024/01/13 14:16:50;;;;;;;21.42;8.75;;;7.40;53.70;;;;;;6265132;28;20021;-74
2024/01/13 14:19:54;;;;;;;26.00;8.18;;;7.50;53.70;;;;;;6245194;28;20024;-74
2024/01/13 14:22:55;;;;;;;19.10;9.20;;;7.40;53.40;;;;;;6253632;28;20021;-73
2024/01/13 14:25:57;;;;;;;19.60;7.85;;;7.40;53.50;;;;;;6266065;28;20417;-74
2024/01/13 14:28:59;;;;;;;15.15;6.90;;;7.50;53.60;;;;;;6221106;28;20064;-72
2024/01/13 14:32:00;;;;;;;14.07;6.20;;;7.50;53.70;;;;;;6246388;28;20032;-73
2024/01/13 14:35:02;;;;;;;13.52;6.25;;;7.50;53.70;;;;;;6247212;28;20205;-74
2024/01/13 14:38:03;;;;;;;20.95;8.38;;;7.50;53.70;;;;;;6248911;28;20024;-74
2024/01/13 14:41:04;;;;;;;13.93;7.65;;;7.60;53.60;;;;;;6250495;28;20154;-75
2024/01/13 14:44:07;;;;;;;16.65;7.90;;;7.60;53.50;;;;;;6249463;28;20033;-71
2024/01/13 14:47:09;;;;;;;28.23;8.00;;;7.60;53.80;;;;;;6287563;28;20074;-73
2024/01/13 14:50:11;;;;;;;19.83;8.10;;;7.60;53.60;;;;;;6248442;28;20408;-73
2024/01/13 14:53:12;;;;;;;16.98;7.07;;;7.60;53.60;;;;;;6264836;28;20048;-72
2024/01/13 14:56:13;;;;;;;19.98;8.60;;;7.70;53.70;;;;;;6248221;28;20033;-72
2024/01/13 14:59:15;;;;;;;22.60;8.25;;;7.70;53.50;;;;;;6245148;28;20051;-75
2024/01/13 15:02:18;;;;;;;16.90;8.63;;;7.70;53.50;;;;;;6252359;28;20452;-73
2024/01/13 15:05:18;;;;;;;16.02;8.20;;;7.60;53.50;;;;;;6246324;28;20033;-73
2024/01/13 15:08:21;;;;;;;14.88;6.65;;;7.70;53.60;;;;;;6267404;28;20477;-74
2024/01/13 15:11:23;;;;;;;16.23;7.03;;;7.70;53.50;;;;;;6246200;28;20074;-74
2024/01/13 15:14:25;;;;;;;22.25;8.35;;;7.70;53.60;;;;;;6245250;28;20021;-72
2024/01/13 15:17:25;;;;;;;24.30;7.55;;;7.60;53.70;;;;;;6246798;28;20025;-72
2024/01/13 15:20:27;;;;;;;20.10;8.18;;;7.70;53.80;;;;;;6264230;28;20029;-74
2024/01/13 15:23:28;;;;;;;22.52;9.20;;;7.70;53.70;;;;;;6250851;28;20013;-77
2024/01/13 15:26:30;;;;;;;15.48;7.07;;;7.80;53.70;;;;;;6220218;28;20060;-73
2024/01/13 15:29:30;;;;;;;16.55;7.00;;;7.70;53.60;;;;;;6250188;28;20025;-75
2024/01/13 15:32:31;;;;;;;14.90;7.65;;;7.80;53.70;;;;;;6250254;28;20094;-74
2024/01/13 15:35:33;;;;;;;18.35;6.40;;;7.70;53.80;;;;;;6247249;28;20383;-74
2024/01/13 15:38:37;;;;;;;13.43;5.75;;;7.80;53.90;;;;;;6247456;28;20013;-73
2024/01/13 15:41:38;;;;;;;17.60;6.72;;;7.70;53.80;;;;;;6248446;28;20025;-74
2024/01/13 15:44:39;;;;;;;14.75;6.78;;;7.70;53.80;;;;;;6246483;28;20101;-73
2024/01/13 15:47:41;;;;;;;12.05;4.82;;;7.70;53.90;;;;;;6285850;28;20080;-72
2024/01/13 15:50:44;;;;;;;14.85;6.03;;;7.60;54.50;;;;;;6250839;28;20081;-73